createdAt,value
2023-04-21T00:01:44.677Z,43.03
2023-04-21T00:04:15.313Z,45.55
2023-04-21T00:06:44.400Z,44.30
2023-04-21T00:09:12.275Z,43.42
2023-04-21T00:11:40.301Z,44.89
2023-04-21T00:14:09.583Z,46.43
2023-04-21T00:16:37.560Z,43.40
2023-04-21T00:19:07.046Z,46.36
2023-04-21T00:21:35.291Z,46.20
2023-04-21T00:24:03.193Z,46.60
2023-04-21T00:26:31.126Z,44.89
2023-04-21T00:28:59.392Z,46.39
2023-04-21T00:31:28.710Z,45.59
2023-04-21T00:33:56.816Z,46.61
2023-04-21T00:36:28.125Z,47.41
2023-04-21T00:38:56.113Z,46.61
2023-04-21T00:41:24.804Z,46.85
2023-04-21T00:44:02.410Z,46.81
2023-04-21T00:46:34.838Z,47.11
2023-04-21T00:49:05.853Z,46.62
2023-04-21T00:51:35.525Z,46.87
2023-04-21T00:54:06.127Z,45.54
2023-04-21T00:56:36.703Z,44.55
2023-04-21T00:59:04.752Z,45.24
2023-04-21T01:01:36.576Z,44.67
2023-04-21T01:04:06.299Z,43.21
2023-04-21T01:06:35.120Z,43.28
2023-04-21T01:09:05.407Z,45.64
2023-04-21T01:11:33.608Z,45.87
2023-04-21T01:14:01.874Z,46.38
2023-04-21T01:16:30.230Z,44.64
2023-04-21T01:19:00.197Z,44.44
2023-04-21T01:21:28.976Z,44.97
2023-04-21T01:23:58.424Z,45.27
2023-04-21T01:26:26.442Z,45.44
2023-04-21T01:28:58.365Z,45.85
2023-04-21T01:31:27.371Z,45.65
2023-04-21T01:33:55.537Z,45.02
2023-04-21T01:36:23.456Z,46.04
2023-04-21T01:38:53.453Z,45.28
2023-04-21T01:41:24.915Z,44.66
2023-04-21T01:43:55.012Z,46.21
2023-04-21T01:46:25.318Z,44.50
2023-04-21T01:48:53.409Z,44.99
2023-04-21T01:51:21.419Z,44.96
2023-04-21T01:53:50.024Z,43.70
2023-04-21T01:56:18.964Z,44.97
2023-04-21T01:58:48.265Z,45.07
2023-04-21T02:01:16.498Z,42.93
2023-04-21T02:03:44.678Z,43.36
2023-04-21T02:06:14.030Z,41.66
2023-04-21T02:08:41.877Z,42.22
2023-04-21T02:11:09.848Z,43.26
2023-04-21T02:13:38.548Z,41.79
2023-04-21T02:16:13.883Z,42.11
2023-04-21T02:18:42.520Z,40.47
2023-04-21T02:21:10.470Z,42.06
2023-04-21T02:23:38.399Z,40.93
2023-04-21T02:26:06.769Z,43.21
2023-04-21T02:28:34.743Z,42.40
2023-04-21T02:31:02.630Z,41.19
2023-04-21T02:33:32.023Z,39.77
2023-04-21T02:36:00.152Z,40.40
2023-04-21T02:38:31.109Z,40.48
2023-04-21T02:40:59.740Z,40.16
2023-04-21T02:43:30.956Z,40.60
2023-04-21T02:45:59.456Z,41.76
2023-04-21T02:48:27.913Z,43.09
2023-04-21T02:50:57.560Z,43.08
2023-04-21T02:53:25.486Z,43.36
2023-04-21T02:55:54.498Z,45.53
2023-04-21T02:58:22.479Z,45.39
2023-04-21T03:00:51.580Z,43.03
2023-04-21T03:03:19.851Z,41.97
2023-04-21T03:05:48.104Z,43.27
2023-04-21T03:08:20.603Z,41.70
2023-04-21T03:10:48.684Z,41.57
2023-04-21T03:13:22.617Z,42.11
2023-04-21T03:15:53.145Z,40.78
2023-04-21T03:18:21.178Z,40.67
2023-04-21T03:20:49.164Z,40.74
2023-04-21T03:23:18.632Z,39.33
2023-04-21T03:25:46.744Z,42.27
2023-04-21T03:28:15.825Z,41.18
2023-04-21T03:30:43.833Z,41.72
2023-04-21T03:33:11.752Z,42.27
2023-04-21T03:35:39.832Z,43.23
2023-04-21T03:38:09.949Z,40.77
2023-04-21T03:40:39.170Z,41.11
2023-04-21T03:43:07.791Z,41.00
2023-04-21T03:45:36.312Z,43.28
2023-04-21T03:48:05.040Z,41.35
2023-04-21T03:50:33.152Z,41.30
2023-04-21T03:53:01.335Z,43.33
2023-04-21T03:55:29.220Z,42.90
2023-04-21T03:57:58.836Z,41.85
2023-04-21T04:00:26.819Z,41.32
2023-04-21T04:02:54.889Z,40.95
2023-04-21T04:05:23.051Z,41.13
2023-04-21T04:07:51.335Z,40.62
2023-04-21T04:10:19.310Z,41.06
2023-04-21T04:12:47.364Z,39.72
2023-04-21T04:15:16.890Z,40.42
2023-04-21T04:17:45.014Z,41.24
2023-04-21T04:20:13.149Z,41.23
2023-04-21T04:22:41.104Z,41.05
2023-04-21T04:25:09.650Z,40.08
2023-04-21T04:27:37.606Z,39.57
2023-04-21T04:30:07.167Z,39.87
2023-04-21T04:32:38.119Z,39.91
2023-04-21T04:35:06.680Z,42.82
2023-04-21T04:37:35.158Z,40.41
2023-04-21T04:40:05.577Z,40.60
2023-04-21T04:42:34.865Z,41.59
2023-04-21T04:48:16.928Z,41.44
2023-04-21T04:50:44.969Z,40.31
2023-04-21T04:53:12.768Z,42.00
2023-04-21T04:55:40.630Z,41.53
2023-04-21T04:58:08.463Z,43.90
2023-04-21T05:00:37.150Z,44.40
2023-04-21T05:03:05.483Z,45.54
2023-04-21T05:05:34.975Z,44.99
2023-04-21T05:08:02.898Z,44.28
2023-04-21T05:10:30.815Z,43.57
2023-04-21T05:12:58.701Z,45.15
2023-04-21T05:15:26.565Z,42.66
2023-04-21T05:17:54.411Z,43.66
2023-04-21T05:20:22.932Z,41.74
2023-04-21T05:22:52.115Z,40.52
2023-04-21T05:25:19.955Z,39.84
2023-04-21T05:27:48.377Z,43.21
2023-04-21T05:30:16.295Z,42.95
2023-04-21T05:32:44.222Z,41.24
2023-04-21T05:35:12.179Z,41.02
2023-04-21T05:37:40.039Z,39.17
2023-04-21T05:40:10.286Z,40.14
2023-04-21T05:42:38.067Z,42.60
2023-04-21T05:45:06.879Z,39.28
2023-04-21T05:47:35.441Z,40.92
2023-04-21T05:50:03.609Z,40.14
2023-04-21T05:52:31.522Z,40.01
2023-04-21T05:55:00.553Z,39.96
2023-04-21T05:57:30.004Z,41.17
2023-04-21T05:59:57.880Z,40.08
2023-04-21T06:02:25.963Z,39.71
2023-04-21T06:04:54.821Z,40.57
2023-04-21T06:07:22.860Z,42.90
2023-04-21T06:09:51.816Z,42.88
2023-04-21T06:12:19.694Z,40.28
2023-04-21T06:14:48.992Z,39.96
2023-04-21T06:17:20.270Z,40.96
2023-04-21T06:19:52.931Z,41.51
2023-04-21T06:22:21.739Z,43.18
2023-04-21T06:24:49.816Z,41.45
2023-04-21T06:27:18.109Z,42.08
2023-04-21T06:29:46.142Z,41.42
2023-04-21T06:32:15.344Z,42.74
2023-04-21T06:34:43.664Z,38.84
2023-04-21T06:37:11.835Z,40.20
2023-04-21T06:39:39.747Z,41.95
2023-04-21T06:42:07.724Z,40.75
2023-04-21T06:44:43.262Z,40.02
2023-04-21T06:47:11.334Z,40.63
2023-04-21T06:49:40.833Z,39.65
2023-04-21T06:52:08.744Z,39.30
2023-04-21T06:54:36.891Z,40.62
2023-04-21T06:57:05.068Z,39.21
2023-04-21T06:59:34.361Z,37.24
2023-04-21T07:02:02.388Z,38.32
2023-04-21T07:04:32.255Z,39.29
2023-04-21T07:07:03.203Z,38.73
2023-04-21T07:09:33.800Z,37.92
2023-04-21T07:12:02.980Z,35.67
2023-04-21T07:14:31.005Z,39.03
2023-04-21T07:16:59.368Z,40.55
2023-04-21T07:19:27.610Z,39.83
2023-04-21T07:21:55.669Z,38.19
2023-04-21T07:24:25.654Z,37.65
2023-04-21T07:26:53.542Z,36.35
2023-04-21T07:29:21.780Z,37.81
2023-04-21T07:31:49.757Z,36.95
2023-04-21T07:34:17.537Z,36.08
2023-04-21T07:36:45.711Z,35.19
2023-04-21T07:39:13.868Z,34.61
2023-04-21T07:41:43.430Z,37.70
2023-04-21T07:44:11.286Z,34.54
2023-04-21T07:46:39.383Z,34.27
2023-04-21T07:49:07.413Z,34.90
2023-04-21T07:51:35.405Z,36.15
2023-04-21T07:54:03.999Z,36.37
2023-04-21T07:56:32.535Z,37.86
2023-04-21T07:59:02.114Z,36.18
2023-04-21T08:01:30.109Z,36.44
2023-04-21T08:03:58.341Z,36.35
2023-04-21T08:06:27.786Z,36.97
2023-04-21T08:08:56.007Z,35.77
2023-04-21T08:11:23.951Z,36.67
2023-04-21T08:13:52.116Z,33.92
2023-04-21T08:19:07.924Z,34.78
2023-04-21T08:21:36.114Z,36.57
2023-04-21T08:24:04.406Z,35.50
2023-04-21T08:26:33.868Z,34.97
2023-04-21T08:29:04.409Z,32.73
2023-04-21T08:31:34.015Z,32.60
2023-04-21T08:34:18.229Z,32.57
2023-04-21T08:36:47.479Z,31.19
2023-04-21T08:39:17.006Z,35.19
2023-04-21T08:41:45.314Z,34.15
2023-04-21T08:44:13.117Z,35.81
2023-04-21T08:46:43.802Z,36.83
2023-04-21T08:49:12.738Z,35.89
2023-04-21T08:51:42.746Z,33.33
2023-04-21T08:54:10.971Z,35.39
2023-04-21T08:56:40.291Z,34.87
2023-04-21T08:59:08.308Z,34.87
2023-04-21T09:02:10.042Z,33.58
2023-04-21T09:04:44.284Z,33.46
2023-04-21T09:07:13.015Z,33.61
2023-04-21T09:09:53.421Z,31.20
2023-04-21T09:12:21.611Z,32.60
2023-04-21T09:14:49.988Z,29.38
2023-04-21T09:17:19.452Z,30.75
2023-04-21T09:19:52.102Z,31.12
2023-04-21T09:22:20.030Z,31.57
2023-04-21T09:24:48.355Z,30.47
2023-04-21T09:27:17.746Z,30.27
2023-04-21T09:29:49.106Z,29.08
2023-04-21T09:32:20.952Z,29.16
2023-04-21T09:34:49.104Z,31.30
2023-04-21T09:37:19.144Z,30.76
2023-04-21T09:40:03.284Z,29.51
2023-04-21T09:42:35.052Z,29.01
2023-04-21T09:47:41.315Z,28.75
2023-04-21T09:50:12.585Z,28.12
2023-04-21T09:52:45.055Z,27.97
2023-04-21T09:55:14.006Z,27.13
2023-04-21T09:57:43.569Z,28.10
2023-04-21T10:00:13.562Z,27.16
2023-04-21T10:02:45.174Z,27.68
2023-04-21T10:05:13.395Z,27.52
2023-04-21T10:07:42.753Z,25.99
2023-04-21T10:10:17.916Z,27.96
2023-04-21T10:12:46.389Z,26.88
2023-04-21T10:15:32.761Z,27.17
2023-04-21T10:18:15.088Z,26.05
2023-04-21T10:20:54.042Z,25.71
2023-04-21T10:23:31.540Z,25.88
2023-04-21T10:26:05.110Z,26.82
2023-04-21T10:29:03.298Z,26.92
2023-04-21T10:31:33.667Z,27.55
2023-04-21T10:34:22.244Z,25.56
2023-04-21T10:37:12.903Z,24.73
2023-04-21T10:39:55.723Z,25.04
2023-04-21T10:42:34.953Z,24.58
2023-04-21T10:45:11.594Z,23.47
2023-04-21T10:47:45.373Z,23.47
2023-04-21T10:50:15.867Z,23.46
2023-04-21T10:52:48.806Z,23.01
2023-04-21T10:55:18.151Z,24.53
2023-04-21T10:57:46.760Z,25.67
2023-04-21T11:00:20.944Z,24.25
2023-04-21T11:02:58.481Z,24.72
2023-04-21T11:05:32.208Z,24.56
2023-04-21T11:08:14.445Z,23.15
2023-04-21T11:10:51.285Z,22.01
2023-04-21T11:13:22.317Z,23.43
2023-04-21T11:16:02.188Z,21.65
2023-04-21T11:18:39.669Z,22.42
2023-04-21T11:21:13.811Z,21.43
2023-04-21T11:23:42.982Z,21.21
2023-04-21T11:26:12.420Z,21.85
2023-04-21T11:28:41.925Z,21.68
2023-04-21T11:31:10.107Z,21.37
2023-04-21T11:33:39.271Z,22.03
2023-04-21T11:36:08.025Z,22.67
2023-04-21T11:38:41.130Z,21.44
2023-04-21T11:41:10.857Z,22.03
2023-04-21T11:43:40.553Z,23.66
2023-04-21T11:46:17.972Z,21.70
2023-04-21T11:48:46.890Z,21.02
2023-04-21T11:51:21.504Z,21.19
2023-04-21T11:53:50.561Z,21.44
2023-04-21T11:56:20.079Z,21.75
2023-04-21T11:58:51.622Z,21.90
2023-04-21T12:01:20.122Z,21.80
2023-04-21T12:03:55.575Z,20.56
2023-04-21T12:06:28.723Z,21.17
2023-04-21T12:08:58.505Z,21.35
2023-04-21T12:11:29.086Z,20.32
2023-04-21T12:13:59.491Z,21.47
2023-04-21T12:16:28.484Z,21.41
2023-04-21T12:18:57.605Z,19.94
2023-04-21T12:21:28.782Z,21.13
2023-04-21T12:23:57.100Z,21.88
2023-04-21T12:26:25.243Z,22.90
2023-04-21T12:28:53.340Z,20.87
2023-04-21T12:31:23.057Z,20.67
2023-04-21T12:33:51.255Z,21.46
2023-04-21T12:36:19.430Z,21.27
2023-04-21T12:38:47.591Z,20.61
2023-04-21T12:41:15.668Z,22.05
2023-04-21T12:43:43.814Z,21.72
2023-04-21T12:46:12.449Z,20.75
2023-04-21T12:48:42.625Z,21.33
2023-04-21T12:51:10.524Z,21.46
2023-04-21T12:53:39.082Z,20.81
2023-04-21T12:56:07.969Z,20.56
2023-04-21T12:58:36.092Z,20.38
2023-04-21T13:01:03.932Z,20.59
2023-04-21T13:03:32.100Z,21.43
2023-04-21T13:06:01.817Z,18.93
2023-04-21T13:08:29.666Z,19.04
2023-04-21T13:10:57.477Z,19.74
2023-04-21T13:13:25.378Z,20.14
2023-04-21T13:15:53.614Z,20.15
2023-04-21T13:18:21.638Z,19.48
2023-04-21T13:20:49.657Z,20.30
2023-04-21T13:23:18.926Z,18.90
2023-04-21T13:25:46.854Z,18.89
2023-04-21T13:28:15.301Z,17.92
2023-04-21T13:30:43.318Z,18.71
2023-04-21T13:33:11.952Z,18.91
2023-04-21T13:35:40.123Z,17.71
2023-04-21T13:38:07.989Z,18.42
2023-04-21T13:40:37.267Z,17.99
2023-04-21T13:43:05.234Z,19.95
2023-04-21T13:45:33.117Z,19.36
2023-04-21T13:48:01.173Z,18.64
2023-04-21T13:50:29.454Z,18.31
2023-04-21T13:52:57.392Z,18.89
2023-04-21T13:55:25.391Z,18.32
2023-04-21T13:57:55.489Z,18.04
2023-04-21T14:00:23.574Z,18.26
2023-04-21T14:02:51.777Z,17.78
2023-04-21T14:05:20.358Z,17.69
2023-04-21T14:07:48.894Z,18.24
2023-04-21T14:10:17.110Z,19.49
2023-04-21T14:12:45.531Z,20.53
2023-04-21T14:15:17.755Z,20.40
2023-04-21T14:17:45.835Z,19.02
2023-04-21T14:20:13.981Z,18.83
2023-04-21T14:22:41.914Z,20.20
2023-04-21T14:25:10.261Z,20.14
2023-04-21T14:27:38.312Z,19.02
2023-04-21T14:30:07.326Z,20.07
2023-04-21T14:32:45.976Z,19.87
2023-04-21T14:35:14.708Z,19.36
2023-04-21T14:37:42.909Z,18.65
2023-04-21T14:40:11.629Z,18.34
2023-04-21T14:42:41.581Z,19.29
2023-04-21T14:45:11.018Z,19.26
2023-04-21T14:47:40.864Z,19.74
2023-04-21T14:50:10.120Z,20.62
2023-04-21T14:52:38.672Z,20.21
2023-04-21T14:55:07.791Z,19.34
2023-04-21T14:57:35.760Z,18.43
2023-04-21T15:00:03.941Z,19.22
2023-04-21T15:02:32.057Z,19.43
2023-04-21T15:05:02.767Z,19.14
2023-04-21T15:07:31.115Z,18.52
2023-04-21T15:09:59.329Z,16.61
2023-04-21T15:12:27.612Z,16.34
2023-04-21T15:14:55.700Z,15.00
2023-04-21T15:17:24.087Z,16.70
2023-04-21T15:19:52.182Z,16.25
2023-04-21T15:22:21.508Z,14.51
2023-04-21T15:24:51.161Z,16.12
2023-04-21T15:27:20.318Z,15.81
2023-04-21T15:29:48.789Z,14.55
2023-04-21T15:32:17.221Z,16.87
2023-04-21T15:34:45.711Z,17.25
2023-04-21T15:37:14.588Z,16.69
2023-04-21T15:39:44.521Z,16.15
2023-04-21T15:42:12.615Z,16.33
2023-04-21T15:44:41.995Z,15.12
2023-04-21T15:47:10.044Z,15.22
2023-04-21T15:49:39.147Z,14.95
2023-04-21T15:52:07.382Z,15.29
2023-04-21T15:54:35.515Z,15.13
2023-04-21T15:57:05.466Z,15.09
2023-04-21T15:59:33.614Z,15.28
2023-04-21T16:02:03.340Z,15.41
2023-04-21T16:04:31.875Z,15.57
2023-04-21T16:06:59.975Z,15.67
2023-04-21T16:09:27.849Z,14.41
2023-04-21T16:11:57.001Z,15.95
2023-04-21T16:14:26.858Z,15.24
2023-04-21T16:16:55.106Z,16.16
2023-04-21T16:19:23.361Z,15.87
2023-04-21T16:21:51.705Z,16.12
2023-04-21T16:24:20.221Z,16.93
2023-04-21T16:26:48.406Z,16.82
2023-04-21T16:29:16.417Z,15.43
2023-04-21T16:31:46.744Z,15.99
2023-04-21T16:34:16.440Z,15.29
2023-04-21T16:36:44.778Z,14.78
2023-04-21T16:39:13.251Z,14.69
2023-04-21T16:41:41.401Z,15.66
2023-04-21T16:44:09.321Z,16.86
2023-04-21T16:46:37.970Z,16.19
2023-04-21T16:49:07.709Z,15.18
2023-04-21T16:51:36.991Z,16.01
2023-04-21T16:54:05.514Z,17.41
2023-04-21T16:56:33.654Z,17.84
2023-04-21T16:59:01.727Z,18.40
2023-04-21T17:01:29.846Z,19.33
2023-04-21T17:03:58.015Z,19.25
2023-04-21T17:06:27.879Z,20.51
2023-04-21T17:08:59.838Z,19.30
2023-04-21T17:11:28.887Z,20.48
2023-04-21T17:13:57.103Z,19.85
2023-04-21T17:16:25.536Z,20.40
2023-04-21T17:18:55.017Z,21.29
2023-04-21T17:21:23.236Z,21.52
2023-04-21T17:23:52.914Z,20.88
2023-04-21T17:26:21.728Z,22.61
2023-04-21T17:28:50.076Z,20.78
2023-04-21T17:31:18.523Z,21.17
2023-04-21T17:33:46.903Z,22.19
2023-04-21T17:36:16.811Z,20.79
2023-04-21T17:38:45.123Z,20.44
2023-04-21T17:41:14.460Z,20.81
2023-04-21T17:43:42.798Z,22.27
2023-04-21T17:46:11.818Z,22.25
2023-04-21T17:48:39.863Z,21.27
2023-04-21T17:51:08.057Z,21.38
2023-04-21T17:53:37.118Z,21.31
2023-04-21T17:56:05.555Z,20.96
2023-04-21T17:58:38.433Z,21.79
2023-04-21T18:01:07.236Z,22.27
2023-04-21T18:03:37.345Z,22.19
2023-04-21T18:06:06.213Z,22.24
2023-04-21T18:08:35.749Z,23.02
2023-04-21T18:11:04.361Z,23.10
2023-04-21T18:13:33.079Z,22.03
2023-04-21T18:16:09.725Z,21.68
2023-04-21T18:18:38.764Z,21.56
2023-04-21T18:21:08.015Z,22.01
2023-04-21T18:23:43.132Z,22.67
2023-04-21T18:26:14.624Z,22.40
2023-04-21T18:28:42.880Z,21.81
2023-04-21T18:31:12.891Z,21.61
2023-04-21T18:33:41.285Z,21.75
2023-04-21T18:36:09.662Z,22.21
2023-04-21T18:38:38.437Z,21.47
2023-04-21T18:41:06.650Z,21.68
2023-04-21T18:43:35.168Z,21.95
2023-04-21T18:46:03.270Z,22.80
2023-04-21T18:48:32.794Z,22.74
2023-04-21T18:51:01.139Z,22.22
2023-04-21T18:53:29.422Z,22.40
2023-04-21T18:55:57.485Z,22.59
2023-04-21T18:58:25.669Z,22.05
2023-04-21T19:00:53.836Z,22.82
2023-04-21T19:03:22.258Z,23.20
2023-04-21T19:05:52.018Z,22.76
2023-04-21T19:08:33.838Z,23.18
2023-04-21T19:11:06.811Z,23.05
2023-04-21T19:13:34.979Z,24.64
2023-04-21T19:16:05.191Z,23.06
2023-04-21T19:18:33.482Z,23.07
2023-04-21T19:21:04.480Z,23.61
2023-04-21T19:23:32.576Z,23.02
2023-04-21T19:26:04.804Z,23.55
2023-04-21T19:28:33.038Z,23.35
2023-04-21T19:31:01.348Z,23.58
2023-04-21T19:33:29.808Z,24.16
2023-04-21T19:35:59.257Z,23.48
2023-04-21T19:38:29.067Z,22.89
2023-04-21T19:40:58.344Z,23.44
2023-04-21T19:43:26.866Z,23.67
2023-04-21T19:45:55.222Z,24.27
2023-04-21T19:48:23.566Z,23.99
2023-04-21T19:50:52.317Z,23.96
2023-04-21T19:53:20.481Z,23.32
2023-04-21T19:55:52.520Z,23.11
2023-04-21T19:58:38.228Z,24.69
2023-04-21T20:01:08.388Z,24.03
2023-04-21T20:03:36.854Z,24.03
2023-04-21T20:06:05.868Z,23.82
2023-04-21T20:08:33.980Z,24.14
2023-04-21T20:11:03.844Z,22.95
2023-04-21T20:13:32.285Z,23.07
2023-04-21T20:16:03.618Z,23.96
2023-04-21T20:18:32.016Z,24.99
2023-04-21T20:21:00.368Z,24.47
2023-04-21T20:23:36.876Z,24.88
2023-04-21T20:26:07.680Z,25.11
2023-04-21T20:28:53.247Z,24.66
2023-04-21T20:31:24.022Z,25.48
2023-04-21T20:33:52.378Z,24.79
2023-04-21T20:36:21.932Z,25.21
2023-04-21T20:38:50.565Z,24.12
2023-04-21T20:41:23.333Z,24.98
2023-04-21T20:43:52.008Z,24.94
2023-04-21T20:46:20.001Z,24.13
2023-04-21T20:48:48.097Z,24.40
2023-04-21T20:51:16.117Z,24.30
2023-04-21T20:53:44.081Z,23.99
2023-04-21T20:56:12.126Z,24.57
2023-04-21T20:58:41.638Z,24.77
2023-04-21T21:01:09.539Z,25.13
2023-04-21T21:03:40.639Z,24.52
2023-04-21T21:06:09.750Z,25.66
2023-04-21T21:08:38.099Z,24.53
2023-04-21T21:11:06.637Z,25.25
2023-04-21T21:13:34.812Z,26.52
2023-04-21T21:16:04.228Z,26.13
2023-04-21T21:18:34.687Z,25.67
2023-04-21T21:21:02.687Z,25.25
2023-04-21T21:23:32.786Z,25.61
2023-04-21T21:26:01.502Z,25.89
2023-04-21T21:28:33.614Z,25.28
2023-04-21T21:31:05.966Z,25.05
2023-04-21T21:33:36.286Z,24.74
2023-04-21T21:36:05.071Z,25.03
2023-04-21T21:38:33.415Z,26.04
2023-04-21T21:41:01.517Z,25.44
2023-04-21T21:43:29.393Z,25.97
2023-04-21T21:45:57.555Z,25.74
2023-04-21T21:48:25.517Z,26.31
2023-04-21T21:50:54.863Z,26.19
2023-04-21T21:53:22.847Z,26.27
2023-04-21T21:55:50.754Z,26.98
2023-04-21T21:58:18.794Z,26.36
2023-04-21T22:00:51.731Z,26.25
2023-04-21T22:03:20.175Z,25.84
2023-04-21T22:05:48.332Z,25.93
2023-04-21T22:08:17.643Z,25.85
2023-04-21T22:10:46.150Z,26.85
2023-04-21T22:13:14.631Z,26.36
2023-04-21T22:15:42.925Z,26.16
2023-04-21T22:18:11.168Z,26.71
2023-04-21T22:20:39.557Z,26.37
2023-04-21T22:23:07.653Z,26.68
2023-04-21T22:25:37.023Z,26.94
2023-04-21T22:28:05.122Z,26.35
2023-04-21T22:30:33.062Z,27.08
2023-04-21T22:33:01.358Z,26.50
2023-04-21T22:35:29.499Z,26.73
2023-04-21T22:37:57.678Z,26.83
2023-04-21T22:40:25.971Z,27.24
2023-04-21T22:42:55.263Z,27.35
2023-04-21T22:45:23.233Z,28.43
2023-04-21T22:47:51.414Z,27.79
2023-04-21T22:50:19.965Z,27.96
2023-04-21T22:52:47.853Z,27.53
2023-04-21T22:55:15.938Z,27.24
2023-04-21T22:57:44.117Z,27.04
2023-04-21T23:00:14.226Z,27.68
2023-04-21T23:02:42.339Z,27.56
2023-04-21T23:05:11.123Z,28.72
2023-04-21T23:07:39.223Z,27.94
2023-04-21T23:10:08.036Z,29.42
2023-04-21T23:12:36.125Z,28.65
2023-04-21T23:15:04.601Z,28.83
2023-04-21T23:17:33.979Z,28.69
2023-04-21T23:20:02.695Z,29.31
2023-04-21T23:22:30.680Z,29.31
2023-04-21T23:24:58.644Z,29.04
2023-04-21T23:27:26.573Z,28.16
2023-04-21T23:29:54.545Z,27.93
2023-04-21T23:32:22.599Z,29.90
2023-04-21T23:34:51.845Z,29.86
2023-04-21T23:37:19.705Z,28.83
2023-04-21T23:39:47.577Z,28.69
2023-04-21T23:42:15.556Z,29.08
2023-04-21T23:44:43.410Z,28.61
2023-04-21T23:47:11.643Z,28.95
2023-04-21T23:49:39.899Z,28.80
2023-04-21T23:52:09.375Z,29.59
2023-04-21T23:54:37.387Z,27.86
2023-04-21T23:57:05.230Z,27.50
2023-04-21T23:59:33.055Z,28.03
